createdAt,value
2023-01-29T00:00:14.185Z,12.70
2023-01-29T00:02:42.742Z,13.73
2023-01-29T00:05:26.648Z,12.40
2023-01-29T00:07:58.047Z,12.70
2023-01-29T00:10:27.181Z,13.57
2023-01-29T00:12:55.706Z,14.02
2023-01-29T00:15:23.858Z,12.45
2023-01-29T00:17:51.953Z,13.98
2023-01-29T00:20:20.832Z,14.00
2023-01-29T00:22:49.023Z,13.68
2023-01-29T00:25:18.575Z,14.35
2023-01-29T00:27:46.742Z,14.10
2023-01-29T00:30:19.234Z,14.85
2023-01-29T00:32:48.288Z,13.68
2023-01-29T00:35:16.365Z,13.40
2023-01-29T00:37:44.471Z,14.27
2023-01-29T00:40:13.453Z,14.27
2023-01-29T00:43:17.342Z,14.98
2023-01-29T00:45:45.373Z,14.18
2023-01-29T00:48:13.487Z,13.93
2023-01-29T00:50:41.907Z,13.20
2023-01-29T00:53:10.339Z,14.93
2023-01-29T00:55:38.432Z,13.15
2023-01-29T00:58:07.939Z,14.43
2023-01-29T01:00:36.121Z,14.20
2023-01-29T01:03:06.207Z,14.13
2023-01-29T01:05:34.462Z,12.80
2023-01-29T01:08:02.813Z,11.63
2023-01-29T01:10:32.776Z,15.38
2023-01-29T01:13:03.126Z,14.23
2023-01-29T01:15:35.564Z,13.93
2023-01-29T01:18:04.604Z,13.43
2023-01-29T01:20:36.013Z,13.38
2023-01-29T01:23:04.466Z,13.43
2023-01-29T01:25:32.523Z,14.23
2023-01-29T01:30:29.083Z,13.60
2023-01-29T01:32:58.863Z,12.55
2023-01-29T01:35:26.946Z,14.18
2023-01-29T01:37:55.327Z,14.50
2023-01-29T01:40:24.601Z,13.80
2023-01-29T01:42:54.506Z,13.75
2023-01-29T01:45:27.155Z,14.10
2023-01-29T01:48:00.869Z,14.43
2023-01-29T01:50:35.339Z,14.48
2023-01-29T01:53:07.991Z,12.70
2023-01-29T01:55:43.116Z,14.60
2023-01-29T01:58:16.810Z,13.68
2023-01-29T02:00:45.029Z,12.38
2023-01-29T02:03:32.510Z,14.70
2023-01-29T02:06:19.274Z,12.38
2023-01-29T02:09:11.745Z,13.13
2023-01-29T02:11:40.102Z,14.88
2023-01-29T02:14:08.507Z,13.30
2023-01-29T02:16:37.625Z,14.65
2023-01-29T02:19:12.400Z,13.93
2023-01-29T02:22:07.773Z,14.18
2023-01-29T02:25:10.019Z,13.98
2023-01-29T02:28:12.083Z,13.98
2023-01-29T02:30:50.764Z,14.85
2023-01-29T02:33:27.406Z,14.48
2023-01-29T02:36:00.495Z,13.38
2023-01-29T02:41:05.412Z,14.35
2023-01-29T02:43:45.417Z,14.48
2023-01-29T02:46:20.989Z,14.45
2023-01-29T02:48:58.835Z,15.23
2023-01-29T02:51:33.423Z,14.10
2023-01-29T02:54:06.204Z,16.13
2023-01-29T02:56:41.223Z,14.68
2023-01-29T02:59:17.613Z,13.20
2023-01-29T03:01:51.212Z,14.00
2023-01-29T03:06:54.301Z,13.55
2023-01-29T03:09:29.303Z,15.23
2023-01-29T03:12:19.978Z,13.65
2023-01-29T03:15:09.744Z,14.60
2023-01-29T03:17:42.880Z,14.20
2023-01-29T03:20:17.805Z,15.35
2023-01-29T03:22:52.162Z,13.60
2023-01-29T03:25:41.311Z,11.77
2023-01-29T03:28:31.126Z,12.43
2023-01-29T03:31:23.204Z,13.15
2023-01-29T03:33:55.943Z,14.73
2023-01-29T03:36:38.364Z,12.80
2023-01-29T03:39:09.442Z,14.10
2023-01-29T03:41:47.635Z,13.07
2023-01-29T03:44:21.664Z,13.60
2023-01-29T03:46:57.664Z,14.93
2023-01-29T03:49:36.111Z,13.95
2023-01-29T03:52:09.745Z,12.80
2023-01-29T03:54:46.825Z,14.38
2023-01-29T03:57:23.950Z,14.30
2023-01-29T04:00:04.468Z,13.73
2023-01-29T04:02:39.950Z,12.35
2023-01-29T04:05:15.044Z,12.77
2023-01-29T04:07:45.662Z,12.07
2023-01-29T04:10:19.038Z,12.60
2023-01-29T04:12:53.534Z,13.15
2023-01-29T04:15:25.175Z,12.20
2023-01-29T04:17:57.407Z,13.38
2023-01-29T04:20:26.211Z,13.43
2023-01-29T04:22:54.563Z,11.07
2023-01-29T04:25:28.999Z,13.18
2023-01-29T04:28:06.221Z,11.48
2023-01-29T04:30:46.889Z,13.15
2023-01-29T04:33:32.589Z,12.27
2023-01-29T04:36:15.092Z,12.02
2023-01-29T04:38:55.591Z,14.05
2023-01-29T04:41:27.072Z,11.45
2023-01-29T04:44:01.573Z,12.23
2023-01-29T04:46:36.797Z,12.15
2023-01-29T04:49:19.340Z,11.82
2023-01-29T04:51:57.322Z,11.95
2023-01-29T04:54:35.715Z,12.35
2023-01-29T04:57:10.399Z,11.65
2023-01-29T04:59:43.854Z,12.38
2023-01-29T05:02:13.762Z,12.07
2023-01-29T05:04:46.658Z,10.52
2023-01-29T05:07:20.154Z,10.70
2023-01-29T05:09:49.576Z,10.93
2023-01-29T05:12:19.011Z,10.93
2023-01-29T05:14:50.381Z,10.73
2023-01-29T05:17:21.576Z,11.20
2023-01-29T05:19:52.306Z,10.05
2023-01-29T05:22:22.827Z,10.00
2023-01-29T05:24:51.531Z,10.18
2023-01-29T05:27:40.018Z,9.68
2023-01-29T05:30:10.345Z,10.35
2023-01-29T05:32:39.747Z,10.43
2023-01-29T05:35:09.684Z,12.48
2023-01-29T05:37:37.741Z,10.10
2023-01-29T05:40:18.107Z,9.95
2023-01-29T05:42:46.588Z,9.85
2023-01-29T05:45:14.746Z,10.88
2023-01-29T05:47:42.875Z,9.80
2023-01-29T05:50:13.966Z,10.27
2023-01-29T05:52:42.605Z,10.30
2023-01-29T05:55:11.519Z,9.95
2023-01-29T05:57:41.421Z,9.48
2023-01-29T06:00:13.084Z,9.85
2023-01-29T06:02:41.895Z,9.90
2023-01-29T06:05:11.884Z,8.88
2023-01-29T06:07:45.110Z,8.57
2023-01-29T06:10:15.126Z,9.63
2023-01-29T06:12:45.238Z,10.13
2023-01-29T06:15:15.392Z,9.52
2023-01-29T06:17:44.105Z,8.65
2023-01-29T06:20:15.475Z,9.40
2023-01-29T06:22:43.900Z,10.18
2023-01-29T06:25:11.993Z,10.02
2023-01-29T06:27:40.265Z,9.02
2023-01-29T06:30:10.374Z,9.52
2023-01-29T06:32:38.639Z,8.88
2023-01-29T06:35:07.708Z,9.27
2023-01-29T06:37:37.514Z,8.68
2023-01-29T06:40:06.663Z,8.68
2023-01-29T06:42:36.358Z,9.18
2023-01-29T06:45:06.296Z,8.90
2023-01-29T06:47:34.327Z,9.23
2023-01-29T06:50:03.332Z,8.75
2023-01-29T06:52:31.625Z,7.55
2023-01-29T06:55:01.005Z,9.15
2023-01-29T06:57:30.694Z,9.52
2023-01-29T06:59:59.723Z,9.05
2023-01-29T07:02:28.041Z,9.30
2023-01-29T07:04:56.139Z,8.38
2023-01-29T07:07:24.251Z,9.52
2023-01-29T07:09:52.583Z,8.73
2023-01-29T07:12:22.146Z,8.75
2023-01-29T07:14:50.211Z,8.57
2023-01-29T07:17:18.305Z,8.85
2023-01-29T07:19:46.587Z,9.23
2023-01-29T07:22:14.808Z,7.82
2023-01-29T07:24:43.128Z,8.15
2023-01-29T07:27:11.537Z,8.25
2023-01-29T07:29:41.231Z,8.02
2023-01-29T07:32:09.299Z,7.72
2023-01-29T07:34:37.381Z,7.22
2023-01-29T07:37:06.261Z,9.13
2023-01-29T07:39:34.661Z,8.30
2023-01-29T07:42:03.479Z,9.63
2023-01-29T07:44:31.579Z,8.07
2023-01-29T07:47:01.031Z,8.45
2023-01-29T07:49:29.141Z,8.05
2023-01-29T07:51:57.360Z,7.93
2023-01-29T07:54:25.497Z,7.78
2023-01-29T07:56:53.603Z,8.35
2023-01-29T07:59:21.695Z,8.70
2023-01-29T08:01:49.869Z,8.68
2023-01-29T08:04:19.373Z,7.38
2023-01-29T08:06:47.432Z,7.80
2023-01-29T08:09:15.883Z,7.30
2023-01-29T08:11:44.133Z,7.15
2023-01-29T08:14:12.285Z,7.03
2023-01-29T08:16:40.380Z,7.97
2023-01-29T08:19:08.483Z,7.47
2023-01-29T08:21:37.929Z,7.57
2023-01-29T08:24:07.279Z,7.07
2023-01-29T08:26:35.441Z,7.70
2023-01-29T08:29:03.618Z,7.35
2023-01-29T08:31:31.877Z,7.53
2023-01-29T08:33:59.998Z,7.60
2023-01-29T08:36:28.167Z,7.80
2023-01-29T08:38:57.607Z,7.53
2023-01-29T08:41:25.706Z,7.03
2023-01-29T08:43:53.734Z,7.80
2023-01-29T08:46:21.837Z,8.82
2023-01-29T08:48:49.944Z,7.43
2023-01-29T08:51:18.586Z,7.07
2023-01-29T08:53:46.792Z,8.05
2023-01-29T08:56:17.407Z,7.70
2023-01-29T08:58:45.564Z,6.45
2023-01-29T09:01:15.248Z,6.97
2023-01-29T09:03:44.503Z,6.72
2023-01-29T09:06:13.959Z,8.05
2023-01-29T09:08:42.659Z,7.03
2023-01-29T09:11:11.234Z,7.10
2023-01-29T09:13:40.672Z,7.18
2023-01-29T09:16:09.303Z,7.05
2023-01-29T09:18:40.929Z,7.10
2023-01-29T09:21:09.366Z,6.93
2023-01-29T09:23:38.088Z,6.72
2023-01-29T09:26:08.118Z,6.68
2023-01-29T09:28:36.503Z,6.38
2023-01-29T09:31:06.923Z,6.47
2023-01-29T09:33:35.027Z,6.45
2023-01-29T09:36:04.561Z,7.93
2023-01-29T09:38:32.754Z,10.40
2023-01-29T09:41:10.767Z,5.90
2023-01-29T09:43:47.163Z,7.57
2023-01-29T09:46:24.522Z,6.68
2023-01-29T09:49:01.296Z,9.13
2023-01-29T09:51:35.146Z,8.40
2023-01-29T09:54:14.546Z,8.07
2023-01-29T09:56:44.673Z,8.77
2023-01-29T09:59:15.276Z,8.63
2023-01-29T10:01:55.976Z,9.57
2023-01-29T10:04:40.737Z,10.38
2023-01-29T10:07:32.815Z,13.82
2023-01-29T10:10:20.683Z,7.95
2023-01-29T10:12:59.657Z,11.73
2023-01-29T10:15:44.068Z,15.65
2023-01-29T10:18:34.591Z,14.57
2023-01-29T10:21:15.942Z,10.27
2023-01-29T10:23:50.130Z,12.25
2023-01-29T10:26:22.265Z,11.05
2023-01-29T10:28:53.465Z,19.33
2023-01-29T10:31:27.821Z,11.45
2023-01-29T10:34:03.125Z,15.55
2023-01-29T10:36:37.895Z,11.35
2023-01-29T10:39:06.347Z,12.45
2023-01-29T10:41:55.780Z,11.60
2023-01-29T10:44:38.600Z,10.80
2023-01-29T10:47:30.558Z,30.23
2023-01-29T10:50:16.632Z,25.30
2023-01-29T10:52:58.669Z,30.30
2023-01-29T10:55:43.151Z,49.45
2023-01-29T10:58:20.567Z,43.03
2023-01-29T11:00:53.520Z,34.35
2023-01-29T11:03:28.634Z,32.95
2023-01-29T11:06:11.627Z,34.95
2023-01-29T11:08:44.615Z,36.80
2023-01-29T11:13:47.708Z,25.45
2023-01-29T11:16:15.958Z,32.50
2023-01-29T11:18:52.717Z,24.00
2023-01-29T11:21:22.993Z,29.50
2023-01-29T11:23:51.284Z,26.70
2023-01-29T11:26:22.303Z,21.92
2023-01-29T11:28:51.503Z,32.25
2023-01-29T11:31:23.756Z,28.48
2023-01-29T11:33:55.701Z,26.88
2023-01-29T11:36:33.990Z,27.20
2023-01-29T11:39:21.415Z,28.02
2023-01-29T11:41:54.110Z,22.98
2023-01-29T11:44:28.922Z,24.65
2023-01-29T11:46:59.874Z,22.73
2023-01-29T11:49:34.917Z,28.75
2023-01-29T11:52:06.420Z,24.67
2023-01-29T11:54:39.413Z,23.25
2023-01-29T11:57:24.414Z,20.85
2023-01-29T11:59:54.382Z,23.70
2023-01-29T12:02:28.198Z,22.85
2023-01-29T12:04:57.680Z,31.17
2023-01-29T12:07:27.626Z,25.75
2023-01-29T12:09:58.484Z,24.10
2023-01-29T12:12:41.613Z,27.30
2023-01-29T12:15:20.034Z,21.58
2023-01-29T12:18:07.188Z,21.83
2023-01-29T12:20:41.432Z,22.80
2023-01-29T12:23:25.092Z,22.05
2023-01-29T12:26:01.799Z,22.85
2023-01-29T12:28:45.780Z,21.73
2023-01-29T12:31:25.325Z,23.33
2023-01-29T12:34:01.264Z,16.67
2023-01-29T12:36:34.616Z,14.88
2023-01-29T12:41:42.996Z,13.23
2023-01-29T12:44:16.990Z,15.40
2023-01-29T12:46:50.510Z,10.10
2023-01-29T12:49:23.543Z,16.75
2023-01-29T12:51:59.108Z,15.48
2023-01-29T12:54:36.373Z,15.48
2023-01-29T12:57:09.765Z,15.00
2023-01-29T12:59:43.904Z,10.65
2023-01-29T13:02:24.638Z,12.73
2023-01-29T13:05:00.410Z,12.48
2023-01-29T13:07:33.599Z,9.43
2023-01-29T13:10:09.229Z,11.07
2023-01-29T13:12:40.296Z,11.60
2023-01-29T13:15:22.843Z,11.35
2023-01-29T13:17:55.598Z,9.82
2023-01-29T13:20:29.998Z,10.10
2023-01-29T13:23:05.729Z,9.88
2023-01-29T13:25:35.252Z,9.30
2023-01-29T13:28:04.091Z,8.32
2023-01-29T13:30:35.194Z,8.07
2023-01-29T13:33:12.866Z,11.20
2023-01-29T13:35:46.137Z,9.25
2023-01-29T13:38:26.617Z,8.10
2023-01-29T13:41:01.751Z,10.10
2023-01-29T13:43:35.355Z,7.38
2023-01-29T13:46:10.800Z,8.60
2023-01-29T13:48:48.188Z,6.47
2023-01-29T13:51:21.272Z,7.03
2023-01-29T13:56:44.153Z,9.15
2023-01-29T13:59:23.368Z,6.97
2023-01-29T14:02:04.514Z,8.55
2023-01-29T14:04:34.212Z,7.22
2023-01-29T14:07:04.217Z,5.88
2023-01-29T14:10:04.917Z,8.15
2023-01-29T14:12:54.405Z,5.78
2023-01-29T14:15:34.499Z,6.88
2023-01-29T14:18:15.790Z,6.03
2023-01-29T14:20:55.248Z,8.07
2023-01-29T14:23:30.023Z,6.93
2023-01-29T14:25:59.978Z,5.30
2023-01-29T14:28:31.866Z,6.50
2023-01-29T14:31:00.729Z,6.25
2023-01-29T14:33:34.981Z,5.20
2023-01-29T14:36:07.213Z,7.20
2023-01-29T14:38:36.327Z,5.68
2023-01-29T14:41:20.687Z,5.20
2023-01-29T14:43:50.441Z,4.70
2023-01-29T14:46:43.336Z,5.30
2023-01-29T14:49:11.985Z,9.27
2023-01-29T14:51:44.422Z,6.25
2023-01-29T14:54:22.551Z,6.22
2023-01-29T14:56:59.085Z,6.10
2023-01-29T14:59:34.149Z,5.93
2023-01-29T15:02:06.519Z,6.10
2023-01-29T15:04:42.228Z,5.78
2023-01-29T15:07:23.088Z,5.07
2023-01-29T15:10:13.268Z,6.35
2023-01-29T15:12:49.771Z,5.43
2023-01-29T15:15:27.425Z,5.60
2023-01-29T15:18:02.855Z,5.90
2023-01-29T15:20:33.905Z,9.50
2023-01-29T15:23:04.741Z,6.60
2023-01-29T15:25:37.730Z,5.00
2023-01-29T15:28:10.233Z,4.80
2023-01-29T15:30:40.138Z,5.60
2023-01-29T15:33:11.617Z,6.35
2023-01-29T15:35:41.878Z,6.13
2023-01-29T15:38:18.447Z,5.32
2023-01-29T15:40:53.475Z,7.05
2023-01-29T15:43:23.568Z,11.20
2023-01-29T15:45:55.042Z,13.40
2023-01-29T15:48:35.694Z,9.88
2023-01-29T15:51:07.363Z,16.00
2023-01-29T15:53:39.200Z,15.35
2023-01-29T15:56:10.195Z,16.33
2023-01-29T15:58:40.352Z,15.95
2023-01-29T16:01:12.049Z,16.48
2023-01-29T16:03:41.428Z,20.42
2023-01-29T16:06:09.595Z,17.20
2023-01-29T16:08:40.647Z,15.73
2023-01-29T16:11:11.132Z,18.23
2023-01-29T16:13:43.256Z,17.30
2023-01-29T16:16:26.503Z,16.52
2023-01-29T16:19:00.521Z,17.55
2023-01-29T16:21:34.113Z,18.50
2023-01-29T16:24:07.492Z,15.30
2023-01-29T16:26:38.771Z,17.85
2023-01-29T16:29:09.108Z,17.00
2023-01-29T16:31:39.856Z,16.80
2023-01-29T16:34:11.143Z,14.02
2023-01-29T16:36:45.372Z,17.60
2023-01-29T16:39:20.072Z,12.40
2023-01-29T16:42:20.402Z,12.95
2023-01-29T16:44:52.912Z,11.88
2023-01-29T16:47:28.474Z,13.23
2023-01-29T16:49:57.904Z,11.30
2023-01-29T16:52:28.773Z,11.23
2023-01-29T16:55:03.339Z,10.32
2023-01-29T16:57:34.601Z,12.27
2023-01-29T17:00:15.810Z,11.13
2023-01-29T17:02:45.816Z,9.07
2023-01-29T17:05:24.000Z,10.05
2023-01-29T17:07:53.151Z,8.85
2023-01-29T17:10:23.040Z,10.50
2023-01-29T17:12:57.301Z,9.38
2023-01-29T17:15:36.232Z,9.70
2023-01-29T17:18:17.614Z,8.25
2023-01-29T17:20:46.172Z,12.68
2023-01-29T17:23:14.801Z,10.30
2023-01-29T17:25:43.877Z,9.13
2023-01-29T17:28:13.899Z,9.25
2023-01-29T17:30:44.647Z,11.95
2023-01-29T17:33:16.844Z,11.90
2023-01-29T17:35:46.529Z,14.93
2023-01-29T17:38:25.929Z,17.15
2023-01-29T17:40:59.177Z,17.65
2023-01-29T17:43:27.677Z,15.02
2023-01-29T17:45:56.101Z,20.52
2023-01-29T17:48:27.876Z,15.80
2023-01-29T17:50:58.543Z,18.65
2023-01-29T17:53:43.276Z,13.30
2023-01-29T17:56:18.205Z,13.85
2023-01-29T17:58:47.195Z,16.63
2023-01-29T18:01:15.698Z,13.05
2023-01-29T18:03:45.640Z,13.65
2023-01-29T18:06:24.179Z,17.13
2023-01-29T18:08:52.817Z,10.38
2023-01-29T18:11:21.207Z,10.35
2023-01-29T18:13:49.643Z,15.25
2023-01-29T18:16:18.869Z,12.45
2023-01-29T18:18:48.929Z,14.13
2023-01-29T18:21:17.530Z,11.75
2023-01-29T18:23:46.057Z,15.05
2023-01-29T18:26:17.394Z,13.70
2023-01-29T18:28:45.844Z,11.27
2023-01-29T18:31:14.599Z,11.52
2023-01-29T18:33:43.232Z,12.18
2023-01-29T18:36:12.995Z,22.77
2023-01-29T18:38:41.493Z,15.00
2023-01-29T18:41:11.564Z,16.73
2023-01-29T18:43:41.670Z,13.05
2023-01-29T18:46:10.735Z,12.55
2023-01-29T18:48:41.598Z,26.20
2023-01-29T18:51:12.224Z,10.52
2023-01-29T18:53:41.287Z,12.90
2023-01-29T18:56:10.905Z,12.95
2023-01-29T18:58:40.156Z,11.43
2023-01-29T19:01:11.932Z,9.75
2023-01-29T19:03:41.644Z,11.18
2023-01-29T19:06:12.942Z,15.10
2023-01-29T19:08:42.967Z,12.00
2023-01-29T19:11:12.666Z,9.70
2023-01-29T19:13:42.832Z,9.35
2023-01-29T19:16:13.513Z,13.05
2023-01-29T19:18:42.482Z,9.95
2023-01-29T19:21:14.477Z,10.25
2023-01-29T19:23:43.495Z,10.32
2023-01-29T19:26:12.157Z,10.00
2023-01-29T19:28:42.134Z,9.55
2023-01-29T19:31:11.403Z,10.90
2023-01-29T19:33:40.731Z,9.38
2023-01-29T19:36:09.969Z,8.68
2023-01-29T19:38:40.065Z,10.75
2023-01-29T19:41:08.595Z,9.10
2023-01-29T19:43:38.243Z,8.45
2023-01-29T19:46:07.510Z,10.55
2023-01-29T19:48:36.363Z,9.20
2023-01-29T19:51:08.447Z,8.90
2023-01-29T19:53:39.526Z,9.93
2023-01-29T19:56:10.071Z,9.00
2023-01-29T19:58:39.281Z,7.80
2023-01-29T20:01:15.579Z,7.68
2023-01-29T20:03:46.512Z,7.68
2023-01-29T20:06:17.132Z,7.88
2023-01-29T20:08:47.338Z,6.90
2023-01-29T20:11:16.556Z,9.48
2023-01-29T20:13:48.871Z,7.15
2023-01-29T20:16:17.685Z,7.45
2023-01-29T20:18:46.252Z,6.45
2023-01-29T20:21:16.791Z,6.45
2023-01-29T20:23:46.577Z,6.65
2023-01-29T20:26:16.851Z,6.43
2023-01-29T20:28:47.776Z,7.28
2023-01-29T20:31:17.190Z,7.68
2023-01-29T20:33:45.972Z,7.82
2023-01-29T20:36:15.094Z,7.15
2023-01-29T20:38:43.725Z,6.60
2023-01-29T20:41:15.308Z,6.82
2023-01-29T20:43:43.888Z,7.63
2023-01-29T20:46:13.115Z,7.03
2023-01-29T20:48:49.090Z,6.78
2023-01-29T20:51:18.698Z,6.70
2023-01-29T20:53:48.638Z,9.00
2023-01-29T20:56:18.881Z,8.98
2023-01-29T20:59:08.310Z,10.55
2023-01-29T21:01:36.683Z,8.93
2023-01-29T21:04:05.075Z,9.10
2023-01-29T21:06:33.568Z,13.05
2023-01-29T21:09:01.957Z,10.30
2023-01-29T21:11:33.409Z,9.02
2023-01-29T21:14:01.989Z,9.57
2023-01-29T21:16:30.752Z,7.90
2023-01-29T21:18:59.826Z,8.23
2023-01-29T21:21:28.434Z,9.10
2023-01-29T21:23:56.488Z,9.43
2023-01-29T21:26:25.126Z,10.07
2023-01-29T21:28:55.963Z,8.38
2023-01-29T21:31:24.365Z,9.00
2023-01-29T21:33:52.787Z,7.07
2023-01-29T21:36:21.081Z,8.10
2023-01-29T21:38:49.188Z,8.60
2023-01-29T21:41:17.301Z,8.48
2023-01-29T21:43:45.112Z,7.72
2023-01-29T21:46:16.107Z,8.18
2023-01-29T21:48:44.663Z,7.78
2023-01-29T21:51:13.302Z,7.65
2023-01-29T21:53:41.361Z,7.15
2023-01-29T21:56:09.599Z,7.03
2023-01-29T21:58:37.715Z,6.72
2023-01-29T22:01:36.114Z,6.75
2023-01-29T22:03:57.090Z,7.13
2023-01-29T22:06:25.980Z,6.80
2023-01-29T22:08:54.073Z,7.38
2023-01-29T22:11:22.495Z,7.00
2023-01-29T22:13:50.599Z,6.97
2023-01-29T22:16:18.672Z,8.80
2023-01-29T22:18:46.877Z,8.05
2023-01-29T22:21:16.521Z,7.45
2023-01-29T22:23:45.267Z,7.43
2023-01-29T22:26:13.334Z,6.97
2023-01-29T22:28:41.434Z,7.70
2023-01-29T22:31:09.742Z,7.45
2023-01-29T22:33:37.946Z,7.13
2023-01-29T22:36:06.800Z,6.97
2023-01-29T22:38:36.412Z,6.85
2023-01-29T22:41:05.485Z,7.43
2023-01-29T22:43:33.742Z,7.15
2023-01-29T22:46:01.891Z,6.43
2023-01-29T22:48:30.588Z,6.40
2023-01-29T22:51:09.959Z,6.05
2023-01-29T22:53:41.390Z,8.15
2023-01-29T22:56:10.465Z,7.13
2023-01-29T22:58:41.098Z,6.55
2023-01-29T23:01:10.349Z,7.22
2023-01-29T23:03:38.473Z,8.18
2023-01-29T23:06:06.698Z,6.35
2023-01-29T23:08:34.836Z,7.20
2023-01-29T23:11:15.014Z,8.27
2023-01-29T23:13:44.524Z,6.65
2023-01-29T23:16:13.120Z,8.25
2023-01-29T23:18:41.791Z,7.10
2023-01-29T23:21:10.776Z,6.68
2023-01-29T23:23:39.580Z,7.63
2023-01-29T23:26:28.776Z,7.57
2023-01-29T23:28:57.018Z,7.28
2023-01-29T23:31:25.795Z,7.68
2023-01-29T23:33:53.946Z,6.90
2023-01-29T23:36:22.068Z,7.63
2023-01-29T23:38:50.255Z,7.80
2023-01-29T23:41:19.888Z,7.25
2023-01-29T23:43:47.951Z,7.20
2023-01-29T23:46:16.134Z,7.50
2023-01-29T23:48:44.563Z,6.93
2023-01-29T23:51:12.656Z,7.63
2023-01-29T23:53:41.206Z,6.47
2023-01-29T23:56:09.361Z,7.53
2023-01-29T23:58:39.158Z,7.03
